Time;durP1;ratioP1;P1;durP2;ratioP2;P2;SDS_P1;SDS_P2;PMS_P1;PMS_P2;Temp;Humidity;BMP_temperature;BMP_pressure;BME280_temperature;BME280_humidity;BME280_pressure;Samples;Min_cycle;Max_cycle;Signal;HPM_P1;HPM_P2
2021/12/23 00:00:29;;;;;;;22.10;14.13;;;;;;;-4.16;79.47;99999.88;4964389;28;20753;-74
2021/12/23 00:02:54;;;;;;;21.47;14.23;;;;;;;-4.16;79.85;99999.03;4965495;28;20208;-74
2021/12/23 00:05:20;;;;;;;25.10;15.00;;;;;;;-4.16;79.56;99984.50;4963633;28;20263;-73
2021/12/23 00:07:46;;;;;;;24.13;16.67;;;;;;;-4.14;79.70;99987.06;4955553;28;20338;-74
2021/12/23 00:10:11;;;;;;;20.43;15.07;;;;;;;-4.13;79.87;99978.50;4951854;28;20355;-74
2021/12/23 00:12:39;;;;;;;28.10;14.93;;;;;;;-4.13;79.23;99966.56;4955344;28;20252;-73
2021/12/23 00:15:15;;;;;;;15.65;13.27;;;;;;;-4.15;79.52;99968.25;4955944;28;20558;-73
2021/12/23 00:26:06;;;;;;;23.73;15.23;;;;;;;-4.36;79.61;99950.28;4923715;28;20806;-74
2021/12/23 00:28:32;;;;;;;23.47;13.03;;;;;;;-4.35;80.15;99945.13;4959173;28;20735;-73
2021/12/23 00:30:59;;;;;;;21.52;13.15;;;;;;;-4.37;80.01;99944.28;4955185;28;20255;-73
2021/12/23 00:33:26;;;;;;;26.17;13.93;;;;;;;-4.38;79.91;99940.00;4950626;28;20287;-73
2021/12/23 00:35:53;;;;;;;18.17;11.88;;;;;;;-4.37;80.34;99941.72;4961737;28;20212;-73
2021/12/23 00:38:25;;;;;;;18.40;12.88;;;;;;;-4.34;79.95;99938.31;4940213;28;20223;-74
2021/12/23 00:40:52;;;;;;;20.60;12.93;;;;;;;-4.44;79.40;99934.88;4964976;28;20219;-74
2021/12/23 00:43:18;;;;;;;19.75;13.57;;;;;;;-4.60;79.49;99928.00;4966924;28;20295;-74
2021/12/23 00:45:43;;;;;;;18.85;13.70;;;;;;;-4.75;79.84;99928.78;4965002;28;20287;-74
2021/12/23 00:48:09;;;;;;;27.07;13.80;;;;;;;-4.86;80.58;99925.31;4963161;28;20266;-74
2021/12/23 00:50:35;;;;;;;21.48;13.63;;;;;;;-4.86;80.92;99930.44;4966213;28;20220;-74
2021/12/23 00:53:05;;;;;;;20.93;13.77;;;;;;;-4.86;80.64;99926.22;4964384;28;20292;-74
2021/12/23 00:55:31;;;;;;;24.55;13.80;;;;;;;-4.87;80.71;99921.91;4965277;28;20196;-74
2021/12/23 00:57:56;;;;;;;21.13;13.80;;;;;;;-4.93;80.69;99903.97;4964684;28;20231;-73
2021/12/23 01:00:22;;;;;;;20.30;12.37;;;;;;;-5.01;80.64;99908.19;4963098;28;20327;-74
2021/12/23 01:02:48;;;;;;;19.90;13.03;;;;;;;-5.05;81.32;99911.59;4965243;28;20212;-73
2021/12/23 01:05:19;;;;;;;18.10;13.77;;;;;;;-5.01;81.10;99903.09;4951967;28;20216;-74
2021/12/23 01:07:45;;;;;;;15.93;10.57;;;;;;;-4.97;81.12;99909.91;4954097;28;20317;-73
2021/12/23 01:10:11;;;;;;;20.30;12.07;;;;;;;-4.88;81.07;99911.69;4977676;28;20240;-73
2021/12/23 01:12:44;;;;;;;19.50;12.52;;;;;;;-4.80;81.28;99912.56;4977737;28;20295;-74
2021/12/23 01:15:17;;;;;;;24.95;11.70;;;;;;;-4.74;80.64;99913.41;4971339;28;20204;-74
2021/12/23 01:17:55;;;;;;;17.38;10.55;;;;;;;-4.67;81.09;99912.59;4972988;28;20811;-73
2021/12/23 01:20:27;;;;;;;20.33;14.07;;;;;;;-4.65;80.90;99904.03;4980505;28;20224;-74
2021/12/23 01:22:55;;;;;;;20.52;12.25;;;;;;;-4.64;80.76;99901.50;4980946;28;20394;-74
2021/12/23 01:25:21;;;;;;;18.70;12.60;;;;;;;-4.68;80.52;99886.94;4987664;28;20206;-73
2021/12/23 01:27:47;;;;;;;22.48;15.20;;;;;;;-4.73;80.51;99896.34;4988115;28;20219;-74
2021/12/23 01:30:13;;;;;;;19.03;12.83;;;;;;;-4.79;81.07;99899.72;4964733;28;20224;-74
2021/12/23 01:32:40;;;;;;;22.48;13.13;;;;;;;-4.79;80.62;99904.84;4957557;28;20909;-74
2021/12/23 01:35:06;;;;;;;20.38;12.43;;;;;;;-4.76;81.12;99904.88;4965385;28;20704;-74
2021/12/23 01:37:32;;;;;;;18.77;13.52;;;;;;;-4.76;80.98;99897.19;4965164;28;20246;-73
2021/12/23 01:39:57;;;;;;;28.57;14.10;;;;;;;-4.72;81.22;99891.22;4968777;28;20259;-74
2021/12/23 01:42:22;;;;;;;26.77;14.30;;;;;;;-4.71;80.60;99886.94;4959774;28;20304;-74
2021/12/23 01:44:48;;;;;;;25.67;14.20;;;;;;;-4.70;81.41;99876.72;4957989;28;20251;-73
2021/12/23 01:47:13;;;;;;;15.60;11.40;;;;;;;-4.71;80.78;99874.13;4955635;28;20216;-74
2021/12/23 01:49:39;;;;;;;22.37;13.37;;;;;;;-4.74;80.57;99864.72;4957793;28;20222;-74
2021/12/23 01:52:05;;;;;;;18.23;11.60;;;;;;;-4.76;81.37;99861.31;4954264;28;20204;-74
2021/12/23 01:54:30;;;;;;;27.42;14.52;;;;;;;-4.78;80.92;99865.59;4957716;28;20260;-74
2021/12/23 01:56:57;;;;;;;19.60;14.40;;;;;;;-4.80;81.20;99872.41;4955865;28;20295;-74
2021/12/23 01:59:23;;;;;;;20.23;13.63;;;;;;;-4.82;81.00;99856.16;4959899;28;20604;-73
2021/12/23 02:01:48;;;;;;;22.27;14.53;;;;;;;-4.88;81.64;99853.59;4967159;28;20208;-74
2021/12/23 02:04:13;;;;;;;25.83;16.60;;;;;;;-4.89;81.00;99851.88;4967161;28;20212;-74
2021/12/23 02:06:39;;;;;;;25.00;16.13;;;;;;;-4.87;81.47;99852.72;4968196;28;20645;-74
2021/12/23 02:09:06;;;;;;;22.03;13.67;;;;;;;-4.86;81.40;99854.47;4961692;28;20232;-72
2021/12/23 02:11:31;;;;;;;20.23;13.93;;;;;;;-4.83;81.68;99849.34;4966095;28;20323;-72
2021/12/23 02:13:57;;;;;;;30.73;16.10;;;;;;;-4.84;81.83;99851.88;4966728;28;20315;-74
2021/12/23 02:16:22;;;;;;;23.87;14.67;;;;;;;-4.83;81.20;99853.59;4965546;28;20279;-74
2021/12/23 02:18:48;;;;;;;19.40;12.30;;;;;;;-4.82;81.39;99840.78;4966581;28;20640;-74
2021/12/23 02:21:13;;;;;;;23.33;13.27;;;;;;;-4.83;81.55;99844.22;4950101;28;20208;-73
2021/12/23 02:23:39;;;;;;;22.67;13.57;;;;;;;-4.83;81.94;99839.09;4968533;28;20208;-73
2021/12/23 02:26:04;;;;;;;22.07;15.60;;;;;;;-4.87;81.74;99824.56;4968909;28;20205;-74
2021/12/23 02:28:30;;;;;;;22.30;14.20;;;;;;;-4.91;81.32;99822.84;4970529;28;20196;-72
2021/12/23 02:30:56;;;;;;;21.25;14.07;;;;;;;-4.92;81.98;99823.69;4969311;28;20976;-73
2021/12/23 02:33:24;;;;;;;16.00;13.33;;;;;;;-4.92;81.46;99823.69;4967865;28;20231;-73
2021/12/23 02:35:52;;;;;;;19.52;13.52;;;;;;;-4.87;82.08;99828.81;4965483;28;20235;-73
2021/12/23 02:38:18;;;;;;;16.55;12.15;;;;;;;-4.81;81.70;99829.69;4965223;28;20746;-74
2021/12/23 02:40:44;;;;;;;22.00;13.87;;;;;;;-4.78;81.61;99828.84;4966572;28;20224;-73
2021/12/23 02:43:22;;;;;;;21.08;13.82;;;;;;;-4.78;81.78;99813.47;4965148;28;20227;-73
2021/12/23 02:45:51;;;;;;;20.48;11.70;;;;;;;-4.83;82.11;99789.53;4966403;28;20235;-74
2021/12/23 02:48:20;;;;;;;25.42;13.85;;;;;;;-4.88;81.86;99794.69;4966431;28;20275;-74
2021/12/23 02:50:48;;;;;;;20.20;12.55;;;;;;;-4.91;82.63;99797.25;4964589;28;20274;-74
2021/12/23 02:53:14;;;;;;;22.60;12.00;;;;;;;-4.87;82.86;99798.94;4965917;28;20248;-72
2021/12/23 02:55:40;;;;;;;18.02;12.57;;;;;;;-4.90;83.22;99789.53;4966258;28;20220;-72
2021/12/23 02:58:06;;;;;;;20.37;12.63;;;;;;;-4.88;82.60;99788.69;4965582;28;20208;-72
2021/12/23 03:00:34;;;;;;;18.60;10.80;;;;;;;-4.93;82.84;99775.88;4965006;23;20524;-85
2021/12/23 03:02:59;;;;;;;21.05;12.40;;;;;;;-4.95;82.74;99777.56;4959205;28;20867;-85
2021/12/23 03:05:25;;;;;;;19.37;12.40;;;;;;;-4.96;83.13;99784.41;4961166;28;20212;-85
2021/12/23 03:07:50;;;;;;;17.87;11.60;;;;;;;-4.97;82.96;99777.59;4962585;28;20755;-85
2021/12/23 03:10:16;;;;;;;16.53;11.30;;;;;;;-4.95;82.97;99783.53;4963240;28;20471;-85
2021/12/23 03:12:42;;;;;;;16.67;10.97;;;;;;;-4.94;82.87;99776.72;4965506;28;20228;-86
2021/12/23 03:15:08;;;;;;;17.30;11.50;;;;;;;-4.92;83.04;99767.31;4965312;28;20865;-85
2021/12/23 03:17:34;;;;;;;16.02;11.15;;;;;;;-4.86;82.70;99762.22;4964118;28;21077;-86
2021/12/23 03:20:00;;;;;;;22.05;13.18;;;;;;;-4.84;83.18;99751.97;4964537;28;20598;-87
2021/12/23 03:22:26;;;;;;;20.20;13.50;;;;;;;-4.82;83.14;99746.00;4962386;28;20204;-86
2021/12/23 03:24:51;;;;;;;23.60;11.57;;;;;;;-4.79;83.19;99752.81;4966615;28;20474;-86
2021/12/23 03:27:17;;;;;;;20.30;11.70;;;;;;;-4.77;83.56;99757.09;4969207;28;20689;-86
2021/12/23 03:29:42;;;;;;;17.60;10.63;;;;;;;-4.74;82.83;99746.84;4976318;28;20218;-86
2021/12/23 03:32:07;;;;;;;24.35;16.60;;;;;;;-4.60;83.23;99743.44;4970658;28;20564;-85
2021/12/23 03:34:33;;;;;;;18.50;14.23;;;;;;;-4.58;82.96;99737.47;4978153;28;20277;-85
2021/12/23 03:36:58;;;;;;;21.03;13.00;;;;;;;-4.56;83.16;99738.31;4984668;28;20295;-85
2021/12/23 03:39:24;;;;;;;14.13;11.60;;;;;;;-4.58;82.78;99740.03;4988299;28;20237;-85
2021/12/23 03:41:50;;;;;;;21.10;12.53;;;;;;;-4.58;82.96;99737.47;4976763;28;20204;-85
2021/12/23 03:44:16;;;;;;;18.10;11.27;;;;;;;-4.59;82.97;99740.00;4969415;28;20207;-86
2021/12/23 03:46:41;;;;;;;20.27;12.33;;;;;;;-4.63;83.31;99740.88;4976102;28;20642;-85
2021/12/23 03:49:08;;;;;;;23.43;11.10;;;;;;;-4.64;83.23;99739.16;4973521;28;20912;-85
2021/12/23 03:51:34;;;;;;;20.42;12.15;;;;;;;-4.60;83.20;99728.06;4975386;28;20264;-85
2021/12/23 03:54:01;;;;;;;14.80;11.98;;;;;;;-4.59;82.72;99730.63;4974553;28;20224;-85
2021/12/23 03:56:26;;;;;;;24.88;11.30;;;;;;;-4.58;82.95;99731.47;4973292;28;20287;-85
2021/12/23 03:58:54;;;;;;;20.57;11.50;;;;;;;-4.56;83.13;99732.34;4970449;28;20217;-85
2021/12/23 04:01:22;;;;;;;20.08;11.35;;;;;;;-4.58;82.81;99732.34;4959484;28;20315;-84
2021/12/23 04:03:51;;;;;;;18.95;11.98;;;;;;;-4.58;82.96;99729.78;4949532;28;20614;-85
2021/12/23 04:06:17;;;;;;;19.95;12.75;;;;;;;-4.58;82.88;99718.66;4950603;28;20219;-85
2021/12/23 04:08:42;;;;;;;20.33;11.82;;;;;;;-4.65;82.78;99714.38;4954540;28;20643;-85
2021/12/23 04:11:08;;;;;;;24.83;14.83;;;;;;;-4.72;82.74;99719.53;4945846;28;20200;-85
2021/12/23 04:13:33;;;;;;;34.57;16.57;;;;;;;-4.76;82.79;99717.81;4947653;28;20752;-85
2021/12/23 04:15:58;;;;;;;32.30;16.10;;;;;;;-4.78;82.92;99724.66;4940934;28;20209;-85
2021/12/23 04:18:24;;;;;;;21.80;13.93;;;;;;;-4.80;83.17;99726.34;4940893;28;20226;-85
2021/12/23 04:20:55;;;;;;;26.73;14.17;;;;;;;-4.80;83.34;99725.50;4954494;28;20236;-85
2021/12/23 04:23:26;;;;;;;25.10;13.88;;;;;;;-4.83;82.73;99715.22;4949673;28;20212;-85
2021/12/23 04:25:52;;;;;;;25.77;15.02;;;;;;;-4.85;83.02;99707.56;4946430;28;20251;-86
2021/12/23 04:28:20;;;;;;;21.73;12.50;;;;;;;-4.91;82.76;99708.41;4938385;28;20208;-85
2021/12/23 04:30:45;;;;;;;18.83;13.40;;;;;;;-4.96;83.20;99709.28;4940547;28;20908;-85
2021/12/23 04:33:11;;;;;;;19.73;13.80;;;;;;;-4.99;83.53;99712.69;4937156;28;20694;-85
2021/12/23 04:35:36;;;;;;;20.23;12.80;;;;;;;-4.98;83.53;99708.41;4945465;28;20212;-85
2021/12/23 04:38:02;;;;;;;19.77;11.73;;;;;;;-4.96;83.56;99719.53;4949298;28;20216;-85
2021/12/23 04:40:34;;;;;;;19.47;12.57;;;;;;;-5.01;83.38;99716.09;4948878;28;20216;-85
2021/12/23 04:43:01;;;;;;;25.88;14.27;;;;;;;-5.04;83.37;99709.25;4945127;28;20463;-85
2021/12/23 04:45:27;;;;;;;17.70;12.63;;;;;;;-5.07;83.60;99701.56;4944859;28;20216;-86
2021/12/23 04:47:53;;;;;;;19.40;12.27;;;;;;;-5.11;83.97;99695.56;4948023;28;20223;-86
2021/12/23 04:50:18;;;;;;;17.93;11.13;;;;;;;-5.09;83.83;99702.44;4947074;28;20521;-86
2021/12/23 04:52:45;;;;;;;19.47;11.93;;;;;;;-5.08;83.60;99693.88;4949814;28;20224;-86
2021/12/23 04:55:12;;;;;;;23.73;13.55;;;;;;;-5.07;83.66;99685.38;4942032;28;20254;-85
2021/12/23 04:57:38;;;;;;;23.67;15.10;;;;;;;-5.07;83.44;99688.78;4950526;28;20204;-86
2021/12/23 05:00:16;;;;;;;22.33;11.70;;;;;;;-5.06;83.56;99698.16;4950788;28;20753;-86
2021/12/23 05:02:41;;;;;;;25.23;10.77;;;;;;;-5.03;83.49;99687.91;4939275;28;20678;-85
2021/12/23 05:05:07;;;;;;;16.37;11.90;;;;;;;-5.06;83.82;99689.63;4921213;28;20209;-84
2021/12/23 05:07:33;;;;;;;21.95;13.15;;;;;;;-5.06;83.56;99694.75;4937519;28;20240;-85
2021/12/23 05:09:59;;;;;;;19.53;11.73;;;;;;;-5.05;83.72;99686.19;4941716;28;20224;-85
2021/12/23 05:12:24;;;;;;;21.83;12.93;;;;;;;-5.05;83.66;99686.19;4928599;28;20358;-85
2021/12/23 05:14:50;;;;;;;22.50;10.60;;;;;;;-5.04;83.74;99681.09;4945814;28;20200;-85
2021/12/23 05:17:15;;;;;;;21.40;13.40;;;;;;;-5.01;84.36;99664.88;4942214;28;20483;-85
2021/12/23 05:19:42;;;;;;;26.77;15.50;;;;;;;-4.99;83.82;99664.00;4945276;28;20237;-85
2021/12/23 05:22:07;;;;;;;24.05;16.90;;;;;;;-4.96;83.58;99673.41;4947867;28;20219;-85
2021/12/23 05:24:33;;;;;;;31.70;15.20;;;;;;;-4.95;83.87;99673.38;4944356;28;20209;-85
2021/12/23 05:26:59;;;;;;;21.07;15.00;;;;;;;-4.94;83.69;99680.25;4942878;28;20200;-85
2021/12/23 05:29:24;;;;;;;18.95;12.45;;;;;;;-4.96;83.76;99678.53;4938017;28;20595;-85
2021/12/23 05:31:50;;;;;;;18.03;11.50;;;;;;;-4.97;83.57;99672.56;4941951;28;20723;-85
2021/12/23 05:34:16;;;;;;;21.77;12.30;;;;;;;-4.96;83.73;99670.84;4937054;28;20640;-85
2021/12/23 05:36:42;;;;;;;22.17;14.77;;;;;;;-4.96;83.89;99668.28;4941216;28;20234;-84
2021/12/23 05:39:08;;;;;;;33.13;17.37;;;;;;;-4.98;83.83;99663.16;4938042;28;20553;-84
2021/12/23 05:41:34;;;;;;;26.88;14.70;;;;;;;-4.97;83.81;99664.00;4937565;28;20527;-84
2021/12/23 05:44:00;;;;;;;27.85;14.77;;;;;;;-5.00;83.56;99664.84;4941461;28;20201;-85
2021/12/23 05:46:26;;;;;;;20.17;12.37;;;;;;;-5.00;83.73;99662.28;4944673;28;20204;-84
2021/12/23 05:48:51;;;;;;;21.08;12.60;;;;;;;-5.02;84.17;99658.91;4946964;28;20585;-85
2021/12/23 05:51:17;;;;;;;22.03;11.93;;;;;;;-5.06;84.09;99652.06;4947872;28;20214;-84
2021/12/23 05:53:43;;;;;;;22.27;12.90;;;;;;;-5.06;84.15;99653.75;4951052;28;20772;-84
2021/12/23 05:56:08;;;;;;;22.80;11.63;;;;;;;-5.04;83.83;99646.94;4949455;28;20874;-85
2021/12/23 05:58:34;;;;;;;21.30;14.43;;;;;;;-4.99;84.36;99658.03;4947598;28;20225;-85
2021/12/23 06:01:00;;;;;;;18.67;10.53;;;;;;;-4.94;84.22;99656.31;4963030;28;20213;-85
2021/12/23 06:03:25;;;;;;;24.13;12.40;;;;;;;-4.88;84.33;99650.34;4951320;28;20212;-85
2021/12/23 06:05:52;;;;;;;17.30;12.47;;;;;;;-4.83;83.90;99654.63;4923821;28;20873;-85
2021/12/23 06:08:17;;;;;;;19.15;12.38;;;;;;;-4.79;84.21;99658.03;4941960;28;20578;-85
2021/12/23 06:10:43;;;;;;;20.93;14.73;;;;;;;-4.78;83.92;99662.28;4940906;28;20526;-85
2021/12/23 06:13:08;;;;;;;32.13;16.40;;;;;;;-4.77;84.16;99658.88;4953685;28;20326;-85
2021/12/23 06:15:34;;;;;;;33.07;16.97;;;;;;;-4.76;83.95;99664.00;4950072;28;20296;-85
2021/12/23 06:17:59;;;;;;;31.37;16.97;;;;;;;-4.74;83.89;99656.31;4945657;28;20208;-84
2021/12/23 06:20:25;;;;;;;24.17;17.17;;;;;;;-4.76;84.01;99645.22;4948938;28;20283;-84
2021/12/23 06:22:50;;;;;;;20.77;13.43;;;;;;;-4.78;83.72;99657.16;4953769;28;20200;-84
2021/12/23 06:25:16;;;;;;;23.17;12.37;;;;;;;-4.80;83.88;99654.63;4945646;28;21177;-85
2021/12/23 06:27:42;;;;;;;22.80;11.63;;;;;;;-4.81;83.90;99652.88;4952646;28;20924;-84
2021/12/23 06:30:17;;;;;;;18.73;11.00;;;;;;;-4.82;83.81;99664.00;4942440;28;20471;-84
2021/12/23 06:32:45;;;;;;;27.65;17.42;;;;;;;-4.65;84.09;99660.56;4945330;28;20517;-84
2021/12/23 06:35:11;;;;;;;20.35;16.15;;;;;;;-4.68;84.30;99666.56;4955665;28;20212;-84
2021/12/23 06:37:37;;;;;;;18.27;14.70;;;;;;;-4.72;84.36;99663.16;4950070;28;20208;-84
2021/12/23 06:40:04;;;;;;;17.40;11.48;;;;;;;-4.75;84.37;99652.03;4945771;28;20575;-84
2021/12/23 06:42:29;;;;;;;19.10;11.75;;;;;;;-4.78;83.90;99647.78;4941901;28;20213;-84
2021/12/23 06:44:55;;;;;;;15.23;10.77;;;;;;;-4.78;84.28;99652.91;4942399;28;20610;-84
2021/12/23 06:47:20;;;;;;;19.63;12.30;;;;;;;-4.77;84.17;99653.75;4940847;28;20220;-84
2021/12/23 06:49:47;;;;;;;17.50;9.73;;;;;;;-4.78;83.98;99647.78;4940667;28;20227;-84
2021/12/23 06:52:13;;;;;;;19.95;9.77;;;;;;;-4.76;84.08;99646.06;4943863;28;20205;-84
2021/12/23 06:54:42;;;;;;;13.77;10.68;;;;;;;-4.75;83.59;99645.22;4939950;28;20344;-84
2021/12/23 06:57:08;;;;;;;18.25;10.52;;;;;;;-4.73;84.17;99646.03;4945458;28;20236;-84
2021/12/23 06:59:33;;;;;;;21.50;11.40;;;;;;;-4.74;83.99;99646.06;4950173;28;20271;-85
2021/12/23 07:01:59;;;;;;;15.67;10.73;;;;;;;-4.75;83.88;99646.91;4957168;28;20203;-84
2021/12/23 07:04:29;;;;;;;17.20;10.37;;;;;;;-4.74;84.25;99643.50;4945844;28;20284;-85
2021/12/23 07:07:08;;;;;;;13.13;10.45;;;;;;;-4.72;84.58;99641.81;4943454;28;20456;-84
2021/12/23 07:09:38;;;;;;;15.07;10.27;;;;;;;-4.72;84.21;99642.66;4940741;28;20205;-85
2021/12/23 07:12:05;;;;;;;17.52;11.52;;;;;;;-4.70;84.14;99638.38;4942681;28;20244;-84
2021/12/23 07:14:31;;;;;;;11.60;10.40;;;;;;;-4.65;84.17;99637.50;4948992;28;20288;-85
2021/12/23 07:16:56;;;;;;;15.10;10.67;;;;;;;-4.61;83.82;99631.53;4932047;28;20307;-85
2021/12/23 07:19:22;;;;;;;21.37;13.57;;;;;;;-4.61;84.46;99636.66;4941188;28;20296;-84
2021/12/23 07:21:47;;;;;;;19.87;11.70;;;;;;;-4.61;84.47;99624.69;4950722;28;20273;-84
2021/12/23 07:24:13;;;;;;;23.13;12.40;;;;;;;-4.61;84.34;99622.13;4943490;28;20204;-84
2021/12/23 07:26:38;;;;;;;18.37;14.10;;;;;;;-4.58;84.29;99632.38;4940429;28;20217;-84
2021/12/23 07:29:04;;;;;;;23.10;14.90;;;;;;;-4.54;84.49;99628.09;4941799;28;20228;-84
2021/12/23 07:31:29;;;;;;;18.63;13.73;;;;;;;-4.51;84.10;99620.38;4948379;28;20264;-85
2021/12/23 07:33:55;;;;;;;20.93;14.40;;;;;;;-4.47;84.44;99622.94;4942723;28;20225;-84
2021/12/23 07:36:22;;;;;;;25.83;13.90;;;;;;;-4.43;84.04;99613.53;4941449;28;20599;-84
2021/12/23 07:38:48;;;;;;;25.58;14.75;;;;;;;-4.39;84.40;99615.22;4944275;28;20216;-84
2021/12/23 07:41:14;;;;;;;36.53;22.65;;;;;;;-4.34;84.04;99603.25;4945115;28;20189;-84
2021/12/23 07:46:06;;;;;;;44.97;26.60;;;;;;;-4.27;83.96;99604.91;4941749;28;20226;-84
2021/12/23 07:48:31;;;;;;;67.80;32.60;;;;;;;-4.19;83.76;99606.59;4938427;28;20209;-85
2021/12/23 07:50:58;;;;;;;62.97;37.00;;;;;;;-4.13;83.67;99621.97;4941790;28;20760;-85
2021/12/23 07:53:24;;;;;;;49.55;29.65;;;;;;;-4.12;83.94;99614.28;4943645;28;20477;-85
2021/12/23 07:55:49;;;;;;;27.03;18.33;;;;;;;-4.11;83.83;99605.72;4943697;28;20212;-84
2021/12/23 07:58:15;;;;;;;16.87;12.20;;;;;;;-4.11;84.04;99608.28;4941734;28;20201;-85
2021/12/23 08:00:40;;;;;;;21.70;12.60;;;;;;;-4.08;84.25;99612.53;4940442;28;21013;-85
2021/12/23 08:03:06;;;;;;;22.40;12.63;;;;;;;-4.06;83.85;99628.78;4948381;28;20533;-85
2021/12/23 08:05:31;;;;;;;22.23;13.90;;;;;;;-4.02;84.08;99635.63;4946761;28;20240;-85
2021/12/23 08:07:57;;;;;;;25.93;12.63;;;;;;;-3.99;84.27;99634.75;4939385;28;20237;-86
2021/12/23 08:10:23;;;;;;;22.23;12.20;;;;;;;-3.93;83.88;99620.19;4940665;28;20228;-85
2021/12/23 08:12:49;;;;;;;27.70;19.10;;;;;;;-3.88;84.01;99622.72;4941903;28;20479;-85
2021/12/23 08:15:15;;;;;;;23.37;16.20;;;;;;;-3.83;84.10;99624.41;4941905;28;20208;-85
2021/12/23 08:17:40;;;;;;;21.43;13.07;;;;;;;-3.75;83.95;99641.47;4942902;28;20478;-85
2021/12/23 08:20:06;;;;;;;26.03;14.37;;;;;;;-3.67;84.11;99642.28;4941516;28;20468;-85
2021/12/23 08:22:33;;;;;;;23.85;14.05;;;;;;;-3.62;83.68;99641.41;4943678;28;20221;-85
2021/12/23 08:24:59;;;;;;;21.30;13.35;;;;;;;-3.53;83.51;99642.22;4945418;28;20196;-85
2021/12/23 08:27:27;;;;;;;19.70;14.10;;;;;;;-3.47;83.57;99640.47;4950821;28;20213;-85
2021/12/23 08:29:53;;;;;;;24.75;15.55;;;;;;;-3.41;83.29;99622.44;4943062;28;20236;-85
2021/12/23 08:32:20;;;;;;;28.60;14.07;;;;;;;-3.36;83.57;99617.28;4938381;28;20200;-84
2021/12/23 08:34:45;;;;;;;21.42;14.10;;;;;;;-3.33;83.85;99622.38;4942464;28;20641;-84
2021/12/23 08:37:12;;;;;;;23.83;14.17;;;;;;;-3.29;83.65;99626.66;4942618;28;20221;-86
2021/12/23 08:39:42;;;;;;;28.88;17.83;;;;;;;-3.23;83.56;99634.31;4941133;28;20228;-85
2021/12/23 08:42:09;;;;;;;26.70;16.60;;;;;;;-3.16;83.52;99653.06;4937083;28;20696;-85
2021/12/23 08:44:35;;;;;;;22.20;15.00;;;;;;;-3.10;83.63;99650.50;4940687;28;20201;-85
2021/12/23 08:47:02;;;;;;;22.40;14.63;;;;;;;-3.06;84.10;99656.44;4943977;28;20216;-85
2021/12/23 08:49:28;;;;;;;24.00;14.15;;;;;;;-3.00;84.27;99651.25;4944404;28;20619;-85
2021/12/23 08:51:53;;;;;;;20.33;12.90;;;;;;;-2.95;84.14;99634.94;4941463;28;20196;-85
2021/12/23 08:54:19;;;;;;;23.07;13.53;;;;;;;-2.87;84.25;99639.16;4941396;28;20782;-86
2021/12/23 08:56:45;;;;;;;24.83;14.40;;;;;;;-2.77;84.17;99620.22;4940746;28;20296;-85
2021/12/23 08:59:10;;;;;;;25.90;14.80;;;;;;;-2.68;83.82;99631.25;4940196;28;20564;-85
2021/12/23 09:01:36;;;;;;;20.30;13.13;;;;;;;-2.56;83.96;99611.47;4937901;28;20224;-85
2021/12/23 09:04:02;;;;;;;31.80;14.60;;;;;;;-2.48;83.80;99615.66;4941583;28;20220;-85
2021/12/23 09:06:27;;;;;;;20.93;13.80;;;;;;;-2.41;83.61;99618.13;4940842;28;20517;-85
2021/12/23 09:08:54;;;;;;;18.63;13.50;;;;;;;-2.36;83.81;99618.94;4949940;28;20799;-86
2021/12/23 09:11:21;;;;;;;20.33;14.05;;;;;;;-2.32;83.56;99615.47;4941235;28;20205;-85
2021/12/23 09:13:46;;;;;;;26.67;15.43;;;;;;;-2.26;83.70;99618.81;4944904;28;20378;-84
2021/12/23 09:16:12;;;;;;;20.67;14.57;;;;;;;-2.20;83.77;99612.75;4938225;28;20246;-85
2021/12/23 09:18:37;;;;;;;22.70;15.97;;;;;;;-2.14;83.58;99611.81;4938857;28;20209;-85
2021/12/23 09:21:04;;;;;;;23.97;14.93;;;;;;;-2.09;83.48;99607.47;4921572;28;20785;-84
2021/12/23 09:23:30;;;;;;;23.35;15.40;;;;;;;-2.04;83.40;99603.13;4936270;28;20439;-84
2021/12/23 09:25:56;;;;;;;21.92;16.45;;;;;;;-2.02;83.29;99604.81;4940020;28;20211;-84
2021/12/23 09:29:11;;;;;;;33.13;22.23;;;;;;;-1.98;83.53;99592.75;4945557;28;20205;-85
2021/12/23 09:33:55;;;;;;;26.52;17.50;;;;;;;-1.77;83.82;99588.19;4943298;28;20255;-84
2021/12/23 09:36:20;;;;;;;27.03;16.80;;;;;;;-1.68;83.75;99593.22;4944452;28;20648;-84
2021/12/23 09:38:45;;;;;;;26.63;16.70;;;;;;;-1.59;83.80;99590.53;4938522;28;20205;-84
2021/12/23 09:41:17;;;;;;;29.40;15.13;;;;;;;-1.50;83.84;99577.50;4943650;28;20212;-84
2021/12/23 09:43:44;;;;;;;22.83;15.40;;;;;;;-1.41;83.41;99579.06;4945513;28;20582;-84
2021/12/23 09:46:13;;;;;;;25.15;14.65;;;;;;;-1.34;83.33;99583.25;4944710;28;20200;-86
2021/12/23 09:48:42;;;;;;;26.13;15.73;;;;;;;-1.22;83.37;99587.34;4940865;28;20201;-85
2021/12/23 09:51:09;;;;;;;20.45;15.82;;;;;;;-1.14;83.33;99576.03;4933561;28;20224;-85
2021/12/23 09:53:39;;;;;;;30.73;19.85;;;;;;;-1.03;83.11;99572.44;4923644;28;20251;-86
2021/12/23 09:56:05;;;;;;;33.42;21.13;;;;;;;-0.94;83.08;99582.63;4939840;28;20220;-85
2021/12/23 09:58:31;;;;;;;47.63;28.17;;;;;;;-0.87;82.95;99576.44;4942242;28;20694;-86
2021/12/23 10:00:59;;;;;;;36.40;21.48;;;;;;;-0.80;82.78;99575.47;4945447;28;20299;-86
2021/12/23 10:03:25;;;;;;;32.42;24.55;;;;;;;-0.73;82.86;99566.75;4940971;28;20685;-86
2021/12/23 10:05:51;;;;;;;32.30;20.00;;;;;;;-0.64;82.91;99564.88;4922005;28;20223;-86
2021/12/23 10:08:17;;;;;;;23.38;15.55;;;;;;;-0.57;82.82;99561.28;4945161;28;20244;-86
2021/12/23 10:30:21;;;;;;;22.75;16.58;;;;;;;0.06;82.73;99553.13;4940753;28;20681;-86
2021/12/23 10:38:30;;;;;;;22.75;14.88;;;;;;;0.23;82.60;99534.66;4940128;28;20224;-84
2021/12/23 10:40:59;;;;;;;27.30;16.55;;;;;;;0.30;82.62;99538.81;4602602;28;10001592;-83
2021/12/23 10:43:27;;;;;;;16.92;13.90;;;;;;;0.39;82.87;99525.69;4939268;28;20260;-84
2021/12/23 10:45:57;;;;;;;24.38;14.35;;;;;;;0.45;82.93;99529.84;4942537;28;20641;-83
2021/12/23 10:48:26;;;;;;;22.05;14.20;;;;;;;0.50;82.94;99528.00;4941012;28;20307;-83
2021/12/23 10:50:59;;;;;;;25.13;15.65;;;;;;;0.55;82.65;99523.59;4944640;28;20209;-83
2021/12/23 10:59:18;;;;;;;26.23;18.38;;;;;;;0.74;82.97;99512.81;4947189;28;20918;-83
2021/12/23 11:02:03;;;;;;;26.77;21.10;;;;;;;0.93;83.42;99511.44;4941397;28;20666;-83
2021/12/23 11:04:34;;;;;;;23.10;16.05;;;;;;;1.01;82.81;99503.47;4951564;28;20344;-83
2021/12/23 11:07:22;;;;;;;23.10;16.80;;;;;;;1.05;83.04;99492.16;4947095;28;20319;-83
2021/12/23 11:37:56;;;;;;;19.02;15.45;;;;;;;2.47;82.24;99447.38;4939487;28;20645;-84
2021/12/23 11:40:48;;;;;;;21.15;15.90;;;;;;;2.54;82.42;99438.47;4943594;28;20204;-84
2021/12/23 11:45:50;;;;;;;23.90;17.25;;;;;;;2.72;82.32;99445.63;4948322;28;20621;-83
2021/12/23 11:48:16;;;;;;;25.38;19.40;;;;;;;2.82;82.49;99447.00;4946262;28;20209;-84
2021/12/23 11:50:54;;;;;;;24.52;22.02;;;;;;;2.95;82.49;99441.41;4946732;28;20271;-84
2021/12/23 11:53:26;;;;;;;26.50;20.67;;;;;;;3.07;82.50;99430.59;4947224;28;20714;-84
2021/12/23 11:55:53;;;;;;;23.05;16.17;;;;;;;3.19;82.69;99437.09;4946047;28;20679;-84
2021/12/23 11:58:26;;;;;;;20.58;17.17;;;;;;;3.31;82.84;99421.91;4943806;28;20520;-85
2021/12/23 12:01:09;;;;;;;19.55;17.33;;;;;;;3.46;82.75;99417.06;4936498;28;20262;-85
2021/12/23 12:03:52;;;;;;;24.23;17.23;;;;;;;3.64;82.84;99418.09;4940662;28;20196;-84
2021/12/23 12:06:24;;;;;;;21.45;16.25;;;;;;;3.78;82.55;99418.44;4938929;28;20209;-84
2021/12/23 12:09:14;;;;;;;21.52;15.65;;;;;;;3.91;82.37;99408.38;4936536;28;20208;-84
2021/12/23 12:11:46;;;;;;;19.92;14.82;;;;;;;4.03;82.53;99412.28;4938449;28;20223;-84
2021/12/23 12:14:43;;;;;;;24.98;15.25;;;;;;;4.15;83.02;99423.00;4941802;28;20244;-84
2021/12/23 12:17:23;;;;;;;19.20;13.98;;;;;;;4.24;82.90;99415.72;4924030;28;20225;-84
2021/12/23 12:20:00;;;;;;;18.90;13.45;;;;;;;4.33;82.90;99416.22;4939142;28;20258;-85
2021/12/23 12:23:01;;;;;;;19.63;14.23;;;;;;;4.39;83.01;99415.94;4944538;28;20435;-85
2021/12/23 12:25:26;;;;;;;19.20;14.27;;;;;;;4.42;82.89;99415.81;4936658;28;20591;-84
2021/12/23 12:28:12;;;;;;;18.77;12.93;;;;;;;4.43;82.91;99421.91;4939107;28;20327;-84
2021/12/23 12:30:56;;;;;;;17.55;14.30;;;;;;;4.44;83.19;99423.56;4943364;28;20535;-84
2021/12/23 12:33:24;;;;;;;13.82;11.45;;;;;;;4.48;82.57;99417.31;4946681;28;20451;-84
2021/12/23 12:36:02;;;;;;;16.50;13.05;;;;;;;4.54;81.94;99406.69;4941351;28;20201;-84